Lebanon, Oklahoma
Current Conditions -  °F | °C
As of 5:15 PM on Friday 19 Dec 2014 (Local Time) from K1F0 Reporting Station
Overcast Overcast  
Wind Chill: 43°   Ceiling: 800
Heat Index: 43°   Visibility: 7mi
Dew Point: 39°   Wind: 3mph
Humidity: 87%   Direction: 60°ENE
Pressure: 30.19"   Gusts: NA
Location:  33.99°N, 96.91°W
Report Text: K1F0 192315Z AUTO 06003KT 7SM OVC008 06/04 A3019 RMK AO2
Loading
Personal Weather Stations






























Interactive Weather Map New forecast layout! Learn more

10-Day Weather Forecast

Advertisements
Track Severe Weather on mobile